AirNav   TITAN Aviation Fuels
 
 488 users online  

49NR Forty Niner at Middle Tract Airport
Windsor, North Carolina, USA


FAA INFORMATION EFFECTIVE 03 NOVEMBER 2022

Location

FAA Identifier: 49NR
Lat/Long: 35-53-54.0000N 076-51-45.0000W
35-53.900000N 076-51.750000W
35.8983333,-76.8625000
(estimated)
Elevation: 32 ft. / 10 m (estimated)
From city: 8 miles SE of WINDSOR, NC
Time zone: UTC +0 (year round; does not observe DST)
Zip code: 27846

Airport Operations

Airport use: Private use. Permission required prior to landing
Activation date: 07/2022
Control tower: no
ARTCC: WASHINGTON CENTER
FSS: RALEIGH FLIGHT SERVICE STATION
Attendance: 
Segmented circle: no

Airport Communications

WX AWOS-3 at EDE (16 nm NE): 118.275 (252-482-0757)

Nearby radio navigation aids

VOR radial/distance  VOR name  Freq  Var
CVIr188/28.5COFIELD VORTAC114.6009W
ECGr244/39.7ELIZABETH CITY VOR/DME112.5007W

 
NDB name  Hdg/Dist  Freq  Var  ID
CHOCOWINITY035/26.238808WRNW .-. -. .--
ALWOOD074/27.323009WAQE .- --.- .
WOODVILLE241/35.025410WLLW .-.. .-.. .--

Airport Services

Runway Information

Runway 11/29

Dimensions: 3662 x 72 ft. / 1116 x 22 m
Surface: turf
RUNWAY 11  RUNWAY 29
Latitude: 35-54.000000N35-53.800000N
Longitude: 076-52.100000W076-51.400000W
Elevation: 30.0 ft.32.0 ft.
Traffic pattern: leftleft
Runway heading: 109 true289 true

Airport Ownership and Management from official FAA records

Ownership: Privately-owned
Owner: BRIAN KNOWLES
143 KNOWLES LANE
WINDSOR, NC 27983
Phone 252-325-3462
Manager: BRIAN KNOWLES
143 KNOWLES LANE
WINDSOR, NC 27983
Phone 252-325-3462

Airport Operational Statistics

Aircraft based on the field: 2
Single engine airplanes: 1
Multi engine airplanes: 1
    

Additional Remarks

CONDITIONAL NO OBJECTION. SEE AIRSPACE CASE NO. 2022-ASO-4147-NRA.
PLINES LOCATED S, AND ON THE APPROACH END, OF RWY 12.
OWNER DESIRES ARPT BE CHARTED.

Instrument Procedures

There are no published instrument procedures at 49NR.

Some nearby airports with instrument procedures:

KPMZ - Plymouth Municipal Airport (7 nm SE)
KMCZ - Martin County Airport (16 nm W)
KEDE - Northeastern Regional Airport (16 nm NE)
KOCW - Washington-Warren Airport (22 nm SW)
KASJ - Tri-County Airport at Henry Joyner Field (28 nm NW)
 
Loc | Ops | Rwys | IFR | FBO | Links
Com | Nav | Svcs | Stats | Notes
Aerial photo
No photo
 
Airport distance calculator
Flying to Forty Niner at Middle Tract Airport? Find the distance to fly.

From to 49NR

Sunrise and sunset
Times for 28-Nov-2022
 Zulu (UTC)
Morning civil twilight11:30
Sunrise11:58
Sunset21:53
Evening civil twilight22:21

Current date and time
Zulu (UTC)  28-Nov-2022 07:29:57
 
METAR
KEDE 
16nm NE 
280715Z AUTO 26007G14KT 10SM CLR 18/12 A2969 RMK AO2 T01750119
KOCW 
22nm SW 
280655Z AUTO 25009KT 10SM CLR 16/08 A2971 RMK AO2 T01560077
KASJ 
27nm NW 
280715Z AUTO 25006KT 10SM CLR 14/08 A2968 RMK AO2 T01400082
KPGV 
31nm SW 
280715Z AUTO 25006KT 10SM CLR 16/09 A2971 RMK AO2
TAF
KPGV 
31nm SW 
280520Z 2806/2906 26007KT P6SM SKC FM281400 26008G13KT P6SM SKC FM281800 29009G15KT P6SM FEW060 FM282200 31006KT P6SM FEW120 AMD LTD TO CLD VIS AND WIND
NOTAMs
Click for the latest NOTAMs
NOTAMs are issued by the DoD/FAA and will open in a separate window not controlled by AirNav.

 

 
 

Would you like to see your business listed on this page?

 If your business provides an interesting product or service to pilots, flight crews, aircraft, or users of the Forty Niner at Middle Tract Airport, you should consider listing it here.  To start the listing process, click on the button below
 
Add a business
 

Other Pages about Forty Niner at Middle Tract Airport

Update a link
 
Copyright © AirNav, LLC. All rights reserved. Privacy Policy  Contact